sensor_id;sensor_type;location;lat;lon;timestamp;pressure;altitude;pressure_sealevel;temperature;humidity
61537;BME280;48695;53.480;-6.300;2023-07-16T00:02:06;99270.00;;;15.55;79.22
61537;BME280;48695;53.480;-6.300;2023-07-16T00:04:32;99252.53;;;15.54;78.80
61537;BME280;48695;53.480;-6.300;2023-07-16T00:06:59;99246.59;;;15.38;78.74
61537;BME280;48695;53.480;-6.300;2023-07-16T00:09:24;99268.50;;;15.51;78.77
61537;BME280;48695;53.480;-6.300;2023-07-16T00:11:50;99289.78;;;15.48;79.17
61537;BME280;48695;53.480;-6.300;2023-07-16T00:14:15;99299.34;;;15.49;78.98
61537;BME280;48695;53.480;-6.300;2023-07-16T00:16:41;99301.13;;;15.48;79.00
61537;BME280;48695;53.480;-6.300;2023-07-16T00:19:06;99307.34;;;15.47;79.07
61537;BME280;48695;53.480;-6.300;2023-07-16T00:21:32;99285.94;;;15.39;79.17
61537;BME280;48695;53.480;-6.300;2023-07-16T00:23:57;99306.59;;;15.45;79.32
61537;BME280;48695;53.480;-6.300;2023-07-16T00:26:22;99306.59;;;15.45;78.94
61537;BME280;48695;53.480;-6.300;2023-07-16T00:28:48;99313.63;;;15.45;79.43
61537;BME280;48695;53.480;-6.300;2023-07-16T00:31:13;99323.19;;;15.46;79.18
61537;BME280;48695;53.480;-6.300;2023-07-16T00:33:39;99313.56;;;15.46;79.21
61537;BME280;48695;53.480;-6.300;2023-07-16T00:36:04;99322.28;;;15.47;79.18
61537;BME280;48695;53.480;-6.300;2023-07-16T00:38:30;99302.97;;;15.34;78.77
61537;BME280;48695;53.480;-6.300;2023-07-16T00:40:56;99325.00;;;15.45;79.14
61537;BME280;48695;53.480;-6.300;2023-07-16T00:43:21;99324.91;;;15.47;78.85
61537;BME280;48695;53.480;-6.300;2023-07-16T00:45:47;99331.84;;;15.48;79.23
61537;BME280;48695;53.480;-6.300;2023-07-16T00:48:12;99274.66;;;15.10;78.49
61537;BME280;48695;53.480;-6.300;2023-07-16T00:50:40;99328.28;;;15.49;78.74
61537;BME280;48695;53.480;-6.300;2023-07-16T00:53:07;99327.44;;;15.48;78.91
61537;BME280;48695;53.480;-6.300;2023-07-16T00:55:34;99325.28;;;15.41;78.37
61537;BME280;48695;53.480;-6.300;2023-07-16T00:58:02;99344.06;;;15.49;78.50
61537;BME280;48695;53.480;-6.300;2023-07-16T01:00:37;99352.91;;;15.48;78.43
61537;BME280;48695;53.480;-6.300;2023-07-16T01:03:05;99334.53;;;15.34;78.12
61537;BME280;48695;53.480;-6.300;2023-07-16T01:05:38;99361.53;;;15.50;78.43
61537;BME280;48695;53.480;-6.300;2023-07-16T01:08:09;99365.84;;;15.51;78.41
61537;BME280;48695;53.480;-6.300;2023-07-16T01:10:37;99356.66;;;15.44;78.23
61537;BME280;48695;53.480;-6.300;2023-07-16T01:13:03;99372.06;;;15.50;78.05
61537;BME280;48695;53.480;-6.300;2023-07-16T01:15:29;99368.47;;;15.51;77.89
61537;BME280;48695;53.480;-6.300;2023-07-16T01:17:55;99378.16;;;15.50;78.25
61537;BME280;48695;53.480;-6.300;2023-07-16T01:20:20;99369.53;;;15.48;77.65
61537;BME280;48695;53.480;-6.300;2023-07-16T01:26:06;99371.88;;;15.53;77.61
61537;BME280;48695;53.480;-6.300;2023-07-16T01:31:30;99371.16;;;15.37;77.39
61537;BME280;48695;53.480;-6.300;2023-07-16T01:33:57;99385.78;;;15.41;76.98
61537;BME280;48695;53.480;-6.300;2023-07-16T01:36:24;99390.31;;;15.39;76.78
61537;BME280;48695;53.480;-6.300;2023-07-16T01:38:50;99383.56;;;15.35;76.92
61537;BME280;48695;53.480;-6.300;2023-07-16T01:41:15;99388.19;;;15.31;76.56
61537;BME280;48695;53.480;-6.300;2023-07-16T01:43:41;99385.84;;;15.26;76.97
61537;BME280;48695;53.480;-6.300;2023-07-16T01:46:06;99406.13;;;15.24;76.54
61537;BME280;48695;53.480;-6.300;2023-07-16T01:48:34;99418.53;;;15.22;76.61
61537;BME280;48695;53.480;-6.300;2023-07-16T01:51:01;99418.72;;;15.19;76.93
61537;BME280;48695;53.480;-6.300;2023-07-16T01:53:26;99411.88;;;15.17;76.98
61537;BME280;48695;53.480;-6.300;2023-07-16T01:55:52;99418.38;;;15.11;76.61
61537;BME280;48695;53.480;-6.300;2023-07-16T01:58:17;99412.16;;;15.12;77.22
61537;BME280;48695;53.480;-6.300;2023-07-16T02:00:43;99421.91;;;15.10;76.96
61537;BME280;48695;53.480;-6.300;2023-07-16T02:03:08;99425.47;;;15.09;76.89
61537;BME280;48695;53.480;-6.300;2023-07-16T02:05:34;99422.13;;;15.07;77.15
61537;BME280;48695;53.480;-6.300;2023-07-16T02:07:59;99418.25;;;14.98;77.23
61537;BME280;48695;53.480;-6.300;2023-07-16T02:10:25;99392.44;;;14.91;77.11
61537;BME280;48695;53.480;-6.300;2023-07-16T02:12:51;99431.13;;;15.03;77.10
61537;BME280;48695;53.480;-6.300;2023-07-16T02:15:16;99426.25;;;14.97;77.33
61537;BME280;48695;53.480;-6.300;2023-07-16T02:17:43;99436.28;;;15.04;77.37
61537;BME280;48695;53.480;-6.300;2023-07-16T02:20:09;99415.34;;;15.03;77.79
61537;BME280;48695;53.480;-6.300;2023-07-16T02:22:36;99436.00;;;15.09;77.44
61537;BME280;48695;53.480;-6.300;2023-07-16T02:25:02;99433.38;;;15.09;77.73
61537;BME280;48695;53.480;-6.300;2023-07-16T02:27:27;99439.41;;;15.11;77.47
61537;BME280;48695;53.480;-6.300;2023-07-16T02:29:53;99423.41;;;15.00;77.64
61537;BME280;48695;53.480;-6.300;2023-07-16T02:32:18;99441.25;;;15.09;77.19
61537;BME280;48695;53.480;-6.300;2023-07-16T02:34:44;99444.44;;;15.14;77.35
61537;BME280;48695;53.480;-6.300;2023-07-16T02:37:10;99442.66;;;15.15;77.64
61537;BME280;48695;53.480;-6.300;2023-07-16T02:39:35;99439.19;;;15.14;77.30
61537;BME280;48695;53.480;-6.300;2023-07-16T02:42:01;99456.66;;;15.15;76.97
61537;BME280;48695;53.480;-6.300;2023-07-16T02:44:26;99458.44;;;15.15;77.27
61537;BME280;48695;53.480;-6.300;2023-07-16T02:46:52;99453.66;;;15.07;76.82
61537;BME280;48695;53.480;-6.300;2023-07-16T02:49:17;99463.78;;;15.13;77.25
61537;BME280;48695;53.480;-6.300;2023-07-16T02:51:42;99464.63;;;15.14;77.31
61537;BME280;48695;53.480;-6.300;2023-07-16T02:54:08;99453.19;;;15.00;76.91
61537;BME280;48695;53.480;-6.300;2023-07-16T02:56:34;99480.41;;;15.14;77.07
61537;BME280;48695;53.480;-6.300;2023-07-16T02:58:59;99475.06;;;15.15;77.04
61537;BME280;48695;53.480;-6.300;2023-07-16T03:01:25;99481.25;;;15.14;76.48
61537;BME280;48695;53.480;-6.300;2023-07-16T03:03:50;99481.25;;;15.14;76.59
61537;BME280;48695;53.480;-6.300;2023-07-16T03:06:16;99488.41;;;15.12;76.57
61537;BME280;48695;53.480;-6.300;2023-07-16T03:08:41;99486.91;;;15.08;76.29
61537;BME280;48695;53.480;-6.300;2023-07-16T03:11:07;99499.31;;;15.06;76.61
61537;BME280;48695;53.480;-6.300;2023-07-16T03:13:32;99483.88;;;15.00;76.15
61537;BME280;48695;53.480;-6.300;2023-07-16T03:15:57;99494.38;;;15.00;76.00
61537;BME280;48695;53.480;-6.300;2023-07-16T03:18:30;99491.13;;;14.96;76.42
61537;BME280;48695;53.480;-6.300;2023-07-16T03:20:59;99490.56;;;14.91;76.01
61537;BME280;48695;53.480;-6.300;2023-07-16T03:23:24;99504.63;;;14.90;76.76
61537;BME280;48695;53.480;-6.300;2023-07-16T03:25:51;99510.06;;;14.87;76.21
61537;BME280;48695;53.480;-6.300;2023-07-16T03:28:16;99509.38;;;14.84;76.33
61537;BME280;48695;53.480;-6.300;2023-07-16T03:30:48;99529.56;;;14.83;76.44
61537;BME280;48695;53.480;-6.300;2023-07-16T03:33:13;99523.63;;;14.79;76.82
61537;BME280;48695;53.480;-6.300;2023-07-16T03:35:39;99529.94;;;14.77;76.58
61537;BME280;48695;53.480;-6.300;2023-07-16T03:38:04;99538.78;;;14.76;76.80
61537;BME280;48695;53.480;-6.300;2023-07-16T03:40:30;99530.94;;;14.74;77.04
61537;BME280;48695;53.480;-6.300;2023-07-16T03:42:55;99541.41;;;14.76;77.03
61537;BME280;48695;53.480;-6.300;2023-07-16T03:45:21;99471.13;;;14.34;77.02
61537;BME280;48695;53.480;-6.300;2023-07-16T03:47:46;99541.47;;;14.74;77.23
61537;BME280;48695;53.480;-6.300;2023-07-16T03:50:12;99552.81;;;14.75;76.98
61537;BME280;48695;53.480;-6.300;2023-07-16T03:52:37;99545.81;;;14.75;77.01
61537;BME280;48695;53.480;-6.300;2023-07-16T03:55:03;99553.69;;;14.75;76.98
61537;BME280;48695;53.480;-6.300;2023-07-16T03:57:29;99562.41;;;14.76;77.25
61537;BME280;48695;53.480;-6.300;2023-07-16T03:59:54;99535.25;;;14.61;76.91
61537;BME280;48695;53.480;-6.300;2023-07-16T04:02:20;99564.94;;;14.77;76.86
61537;BME280;48695;53.480;-6.300;2023-07-16T04:04:45;99568.31;;;14.79;77.23
61537;BME280;48695;53.480;-6.300;2023-07-16T04:07:11;99569.34;;;14.77;77.15
61537;BME280;48695;53.480;-6.300;2023-07-16T04:09:38;99577.25;;;14.77;76.79
61537;BME280;48695;53.480;-6.300;2023-07-16T04:12:05;99591.91;;;14.81;77.27
61537;BME280;48695;53.480;-6.300;2023-07-16T04:14:30;99590.28;;;14.78;76.52
61537;BME280;48695;53.480;-6.300;2023-07-16T04:16:56;99593.84;;;14.77;77.08
61537;BME280;48695;53.480;-6.300;2023-07-16T04:19:21;99597.44;;;14.76;76.54
61537;BME280;48695;53.480;-6.300;2023-07-16T04:21:46;99603.63;;;14.75;76.67
61537;BME280;48695;53.480;-6.300;2023-07-16T04:24:12;99606.31;;;14.74;76.92
61537;BME280;48695;53.480;-6.300;2023-07-16T04:26:37;99607.16;;;14.74;77.13
61537;BME280;48695;53.480;-6.300;2023-07-16T04:29:03;99616.75;;;14.75;77.20
61537;BME280;48695;53.480;-6.300;2023-07-16T04:31:28;99616.75;;;14.75;77.01
61537;BME280;48695;53.480;-6.300;2023-07-16T04:33:53;99617.50;;;14.77;76.98
61537;BME280;48695;53.480;-6.300;2023-07-16T04:36:19;99624.56;;;14.77;77.18
61537;BME280;48695;53.480;-6.300;2023-07-16T04:38:44;99620.97;;;14.78;77.53
61537;BME280;48695;53.480;-6.300;2023-07-16T04:41:10;99625.97;;;14.83;77.30
61537;BME280;48695;53.480;-6.300;2023-07-16T04:43:35;99625.88;;;14.84;77.07
61537;BME280;48695;53.480;-6.300;2023-07-16T04:46:00;99626.72;;;14.85;77.19
61537;BME280;48695;53.480;-6.300;2023-07-16T04:48:26;99629.19;;;14.88;77.23
61537;BME280;48695;53.480;-6.300;2023-07-16T04:50:52;99645.72;;;14.90;77.49
61537;BME280;48695;53.480;-6.300;2023-07-16T04:53:22;99649.13;;;14.92;77.43
61537;BME280;48695;53.480;-6.300;2023-07-16T04:55:48;99631.22;;;14.83;76.98
61537;BME280;48695;53.480;-6.300;2023-07-16T04:58:14;99670.72;;;14.97;76.94
61537;BME280;48695;53.480;-6.300;2023-07-16T05:00:40;99664.53;;;14.98;77.02
61537;BME280;48695;53.480;-6.300;2023-07-16T05:03:05;99670.47;;;15.01;77.28
61537;BME280;48695;53.480;-6.300;2023-07-16T05:05:31;99670.22;;;15.06;77.24
61537;BME280;48695;53.480;-6.300;2023-07-16T05:07:56;99655.34;;;15.05;77.37
61537;BME280;48695;53.480;-6.300;2023-07-16T05:10:22;99687.31;;;15.13;77.24
61537;BME280;48695;53.480;-6.300;2023-07-16T05:12:47;99695.94;;;15.15;76.55
61537;BME280;48695;53.480;-6.300;2023-07-16T05:15:13;99691.47;;;15.17;76.37
61537;BME280;48695;53.480;-6.300;2023-07-16T05:17:38;99698.41;;;15.18;76.00
61537;BME280;48695;53.480;-6.300;2023-07-16T05:20:04;99704.59;;;15.17;75.86
61537;BME280;48695;53.480;-6.300;2023-07-16T05:22:30;99701.97;;;15.17;76.16
61537;BME280;48695;53.480;-6.300;2023-07-16T05:24:55;99715.97;;;15.18;76.19
61537;BME280;48695;53.480;-6.300;2023-07-16T05:27:21;99699.63;;;15.13;76.57
61537;BME280;48695;53.480;-6.300;2023-07-16T05:29:46;99717.41;;;15.23;76.64
61537;BME280;48695;53.480;-6.300;2023-07-16T05:32:13;99722.75;;;15.22;76.08
61537;BME280;48695;53.480;-6.300;2023-07-16T05:34:38;99726.91;;;15.26;76.34
61537;BME280;48695;53.480;-6.300;2023-07-16T05:37:04;99727.56;;;15.29;76.41
61537;BME280;48695;53.480;-6.300;2023-07-16T05:39:30;99735.28;;;15.32;76.34
61537;BME280;48695;53.480;-6.300;2023-07-16T05:41:55;99743.19;;;15.32;76.06
61537;BME280;48695;53.480;-6.300;2023-07-16T05:44:20;99739.34;;;15.38;76.06
61537;BME280;48695;53.480;-6.300;2023-07-16T05:46:46;99737.56;;;15.39;76.44
61537;BME280;48695;53.480;-6.300;2023-07-16T05:49:11;99709.41;;;15.25;76.22
61537;BME280;48695;53.480;-6.300;2023-07-16T05:51:37;99742.28;;;15.48;76.27
61537;BME280;48695;53.480;-6.300;2023-07-16T05:54:02;99723.47;;;15.40;76.22
61537;BME280;48695;53.480;-6.300;2023-07-16T05:56:28;99755.00;;;15.55;76.12
61537;BME280;48695;53.480;-6.300;2023-07-16T05:58:53;99756.72;;;15.56;75.59
61537;BME280;48695;53.480;-6.300;2023-07-16T06:01:19;99759.25;;;15.58;75.52
61537;BME280;48695;53.480;-6.300;2023-07-16T06:03:44;99760.19;;;15.57;75.58
61537;BME280;48695;53.480;-6.300;2023-07-16T06:06:09;99771.56;;;15.57;75.97
61537;BME280;48695;53.480;-6.300;2023-07-16T06:08:35;99766.34;;;15.56;75.39
61537;BME280;48695;53.480;-6.300;2023-07-16T06:11:00;99764.50;;;15.58;75.92
61537;BME280;48695;53.480;-6.300;2023-07-16T06:13:26;99772.13;;;15.63;76.01
61537;BME280;48695;53.480;-6.300;2023-07-16T06:15:52;99780.63;;;15.68;75.77
61537;BME280;48695;53.480;-6.300;2023-07-16T06:18:17;99783.94;;;15.71;75.44
61537;BME280;48695;53.480;-6.300;2023-07-16T06:20:44;99780.94;;;15.77;75.77
61537;BME280;48695;53.480;-6.300;2023-07-16T06:23:10;99786.22;;;15.77;75.66
61537;BME280;48695;53.480;-6.300;2023-07-16T06:25:36;99790.06;;;15.86;75.60
61537;BME280;48695;53.480;-6.300;2023-07-16T06:28:02;99780.03;;;15.93;75.28
61537;BME280;48695;53.480;-6.300;2023-07-16T06:30:27;99799.06;;;15.98;75.86
61537;BME280;48695;53.480;-6.300;2023-07-16T06:32:52;99786.63;;;16.00;75.13
61537;BME280;48695;53.480;-6.300;2023-07-16T06:35:18;99786.25;;;16.06;75.74
61537;BME280;48695;53.480;-6.300;2023-07-16T06:37:43;99793.25;;;16.07;74.83
61537;BME280;48695;53.480;-6.300;2023-07-16T06:40:09;99781.56;;;15.97;74.23
61537;BME280;48695;53.480;-6.300;2023-07-16T06:42:34;99788.78;;;15.93;74.25
61537;BME280;48695;53.480;-6.300;2023-07-16T06:45:00;99802.91;;;16.06;73.59
61537;BME280;48695;53.480;-6.300;2023-07-16T06:47:25;99805.84;;;16.02;73.51
61537;BME280;48695;53.480;-6.300;2023-07-16T06:49:51;99817.28;;;16.01;73.73
61537;BME280;48695;53.480;-6.300;2023-07-16T06:52:23;99813.91;;;15.99;74.29
61537;BME280;48695;53.480;-6.300;2023-07-16T06:54:50;99830.44;;;16.01;74.23
61537;BME280;48695;53.480;-6.300;2023-07-16T06:57:15;99817.22;;;16.02;74.04
61537;BME280;48695;53.480;-6.300;2023-07-16T06:59:40;99834.50;;;16.06;74.03
61537;BME280;48695;53.480;-6.300;2023-07-16T07:02:06;99803.53;;;15.96;74.09
61537;BME280;48695;53.480;-6.300;2023-07-16T07:04:31;99827.84;;;16.15;74.10
61537;BME280;48695;53.480;-6.300;2023-07-16T07:06:57;99845.00;;;16.22;74.02
61537;BME280;48695;53.480;-6.300;2023-07-16T07:09:22;99844.63;;;16.28;74.27
61537;BME280;48695;53.480;-6.300;2023-07-16T07:11:48;99845.00;;;16.37;73.94
61537;BME280;48695;53.480;-6.300;2023-07-16T07:14:13;99791.34;;;16.09;74.03
61537;BME280;48695;53.480;-6.300;2023-07-16T07:16:38;99875.13;;;16.47;73.60
61537;BME280;48695;53.480;-6.300;2023-07-16T07:19:05;99856.06;;;16.57;74.04
61537;BME280;48695;53.480;-6.300;2023-07-16T07:21:30;99860.28;;;16.60;73.48
61537;BME280;48695;53.480;-6.300;2023-07-16T07:23:56;99873.84;;;16.68;72.93
61537;BME280;48695;53.480;-6.300;2023-07-16T07:26:21;99880.47;;;16.75;73.28
61537;BME280;48695;53.480;-6.300;2023-07-16T07:28:47;99881.97;;;16.79;72.82
61537;BME280;48695;53.480;-6.300;2023-07-16T07:31:12;99886.13;;;16.83;72.74
61537;BME280;48695;53.480;-6.300;2023-07-16T07:33:38;99883.09;;;16.90;73.27
61537;BME280;48695;53.480;-6.300;2023-07-16T07:36:03;99839.94;;;16.62;72.56
61537;BME280;48695;53.480;-6.300;2023-07-16T07:38:29;99893.16;;;16.97;72.29
61537;BME280;48695;53.480;-6.300;2023-07-16T07:40:54;99836.69;;;16.73;72.79
61537;BME280;48695;53.480;-6.300;2023-07-16T07:43:19;99887.44;;;17.05;72.49
61537;BME280;48695;53.480;-6.300;2023-07-16T07:45:45;99898.63;;;17.08;72.32
61537;BME280;48695;53.480;-6.300;2023-07-16T07:48:10;99899.28;;;17.12;72.19
61537;BME280;48695;53.480;-6.300;2023-07-16T07:50:36;99911.50;;;17.13;71.94
61537;BME280;48695;53.480;-6.300;2023-07-16T07:53:01;99909.44;;;17.18;71.98
61537;BME280;48695;53.480;-6.300;2023-07-16T07:55:27;99909.25;;;17.21;72.35
61537;BME280;48695;53.480;-6.300;2023-07-16T07:57:52;99909.91;;;17.25;72.05
61537;BME280;48695;53.480;-6.300;2023-07-16T08:00:18;99913.41;;;17.25;71.45
61537;BME280;48695;53.480;-6.300;2023-07-16T08:02:43;99920.94;;;17.31;71.23
61537;BME280;48695;53.480;-6.300;2023-07-16T08:05:09;99927.72;;;17.35;71.43
61537;BME280;48695;53.480;-6.300;2023-07-16T08:07:34;99930.13;;;17.38;71.22
61537;BME280;48695;53.480;-6.300;2023-07-16T08:10:00;99932.59;;;17.42;71.19
61537;BME280;48695;53.480;-6.300;2023-07-16T08:12:25;99938.66;;;17.44;71.40
61537;BME280;48695;53.480;-6.300;2023-07-16T08:14:51;99930.72;;;17.44;71.55
61537;BME280;48695;53.480;-6.300;2023-07-16T08:17:16;99942.03;;;17.46;71.38
61537;BME280;48695;53.480;-6.300;2023-07-16T08:19:41;99940.13;;;17.48;70.48
61537;BME280;48695;53.480;-6.300;2023-07-16T08:22:07;99939.19;;;17.49;70.89
61537;BME280;48695;53.480;-6.300;2023-07-16T08:24:32;99939.19;;;17.49;70.82
61537;BME280;48695;53.480;-6.300;2023-07-16T08:26:58;99937.31;;;17.51;70.80
61537;BME280;48695;53.480;-6.300;2023-07-16T08:29:23;99948.53;;;17.54;71.09
61537;BME280;48695;53.480;-6.300;2023-07-16T08:31:48;99940.31;;;17.59;70.74
61537;BME280;48695;53.480;-6.300;2023-07-16T08:34:14;99940.88;;;17.64;71.01
61537;BME280;48695;53.480;-6.300;2023-07-16T08:36:39;99940.34;;;17.72;70.53
61537;BME280;48695;53.480;-6.300;2023-07-16T08:39:05;99955.53;;;17.82;70.28
61537;BME280;48695;53.480;-6.300;2023-07-16T08:41:31;99944.25;;;17.80;70.76
61537;BME280;48695;53.480;-6.300;2023-07-16T08:43:56;99930.94;;;17.82;70.75
61537;BME280;48695;53.480;-6.300;2023-07-16T08:46:22;99965.19;;;18.10;70.37
61537;BME280;48695;53.480;-6.300;2023-07-16T08:48:48;99960.97;;;18.21;69.51
61537;BME280;48695;53.480;-6.300;2023-07-16T08:51:15;99970.94;;;18.30;68.91
61537;BME280;48695;53.480;-6.300;2023-07-16T08:53:41;99978.47;;;18.36;68.66
61537;BME280;48695;53.480;-6.300;2023-07-16T08:56:07;99973.78;;;18.39;68.29
61537;BME280;48695;53.480;-6.300;2023-07-16T08:58:32;99977.19;;;18.41;68.38
61537;BME280;48695;53.480;-6.300;2023-07-16T09:00:59;99983.16;;;18.45;68.78
61537;BME280;48695;53.480;-6.300;2023-07-16T09:03:25;99983.16;;;18.45;68.85
61537;BME280;48695;53.480;-6.300;2023-07-16T09:05:51;99976.34;;;18.41;68.93
61537;BME280;48695;53.480;-6.300;2023-07-16T09:08:18;99990.72;;;18.50;69.07
61537;BME280;48695;53.480;-6.300;2023-07-16T09:10:43;99992.66;;;18.48;69.09
61537;BME280;48695;53.480;-6.300;2023-07-16T09:13:09;99986.94;;;18.54;69.83
61537;BME280;48695;53.480;-6.300;2023-07-16T09:15:35;99999.84;;;18.58;69.85
61537;BME280;48695;53.480;-6.300;2023-07-16T09:18:01;99975.63;;;18.52;69.56
61537;BME280;48695;53.480;-6.300;2023-07-16T09:20:26;99988.25;;;18.61;69.34
61537;BME280;48695;53.480;-6.300;2023-07-16T09:22:58;99988.44;;;18.58;69.65
61537;BME280;48695;53.480;-6.300;2023-07-16T09:25:30;99992.69;;;18.60;69.61
61537;BME280;48695;53.480;-6.300;2023-07-16T09:28:00;99992.03;;;18.57;69.91
61537;BME280;48695;53.480;-6.300;2023-07-16T09:30:31;99992.56;;;18.62;69.99
61537;BME280;48695;53.480;-6.300;2023-07-16T09:32:56;100005.41;;;18.68;69.66
61537;BME280;48695;53.480;-6.300;2023-07-16T09:35:21;99991.16;;;18.83;68.93
61537;BME280;48695;53.480;-6.300;2023-07-16T09:37:47;99992.75;;;18.99;68.48
61537;BME280;48695;53.480;-6.300;2023-07-16T09:40:12;99995.94;;;19.16;68.68
61537;BME280;48695;53.480;-6.300;2023-07-16T09:42:40;99993.13;;;19.31;67.44
61537;BME280;48695;53.480;-6.300;2023-07-16T09:45:08;100004.97;;;19.51;66.02
61537;BME280;48695;53.480;-6.300;2023-07-16T09:47:34;99999.28;;;19.57;67.13
61537;BME280;48695;53.480;-6.300;2023-07-16T09:50:00;100009.13;;;19.67;65.69
61537;BME280;48695;53.480;-6.300;2023-07-16T09:52:27;100007.50;;;19.78;65.33
61537;BME280;48695;53.480;-6.300;2023-07-16T09:54:55;100013.38;;;19.94;65.82
61537;BME280;48695;53.480;-6.300;2023-07-16T09:57:24;100012.47;;;20.06;64.94
61537;BME280;48695;53.480;-6.300;2023-07-16T09:59:52;100012.44;;;20.19;63.17
61537;BME280;48695;53.480;-6.300;2023-07-16T10:02:18;100000.16;;;20.18;64.25
61537;BME280;48695;53.480;-6.300;2023-07-16T10:04:45;100018.50;;;20.32;62.75
61537;BME280;48695;53.480;-6.300;2023-07-16T10:07:21;100019.31;;;20.45;64.85
61537;BME280;48695;53.480;-6.300;2023-07-16T10:12:18;100010.53;;;20.80;62.79
61537;BME280;48695;53.480;-6.300;2023-07-16T10:14:52;100000.69;;;21.05;62.84
61537;BME280;48695;53.480;-6.300;2023-07-16T10:17:19;100014.47;;;21.21;61.36
61537;BME280;48695;53.480;-6.300;2023-07-16T10:19:51;100013.28;;;21.47;62.69
61537;BME280;48695;53.480;-6.300;2023-07-16T10:22:31;100018.09;;;21.76;62.77
61537;BME280;48695;53.480;-6.300;2023-07-16T10:24:56;100015.75;;;21.94;58.97
61537;BME280;48695;53.480;-6.300;2023-07-16T10:27:35;100008.56;;;22.28;61.55
61537;BME280;48695;53.480;-6.300;2023-07-16T10:30:01;99999.31;;;22.43;57.56
61537;BME280;48695;53.480;-6.300;2023-07-16T10:32:29;100010.66;;;22.77;57.36
61537;BME280;48695;53.480;-6.300;2023-07-16T10:34:55;100015.84;;;23.00;56.12
61537;BME280;48695;53.480;-6.300;2023-07-16T10:37:21;100011.75;;;23.17;56.51
61537;BME280;48695;53.480;-6.300;2023-07-16T10:39:51;100013.25;;;23.40;58.00
61537;BME280;48695;53.480;-6.300;2023-07-16T10:42:19;100010.47;;;23.51;54.57
61537;BME280;48695;53.480;-6.300;2023-07-16T10:44:44;100013.06;;;23.63;54.09
61537;BME280;48695;53.480;-6.300;2023-07-16T10:47:40;100015.66;;;23.74;56.34
61537;BME280;48695;53.480;-6.300;2023-07-16T10:50:08;100018.75;;;23.79;54.57
61537;BME280;48695;53.480;-6.300;2023-07-16T10:52:35;100019.63;;;23.89;54.62
61537;BME280;48695;53.480;-6.300;2023-07-16T10:55:00;100023.59;;;24.04;54.21
61537;BME280;48695;53.480;-6.300;2023-07-16T10:57:27;100012.09;;;24.14;52.64
61537;BME280;48695;53.480;-6.300;2023-07-16T10:59:54;100030.78;;;24.33;50.78
61537;BME280;48695;53.480;-6.300;2023-07-16T11:02:21;100032.38;;;24.36;51.40
61537;BME280;48695;53.480;-6.300;2023-07-16T11:04:48;100032.06;;;24.29;50.16
61537;BME280;48695;53.480;-6.300;2023-07-16T11:07:15;100038.47;;;24.17;52.20
61537;BME280;48695;53.480;-6.300;2023-07-16T11:09:47;100050.25;;;24.04;50.90
61537;BME280;48695;53.480;-6.300;2023-07-16T11:12:14;100039.81;;;23.82;51.52
61537;BME280;48695;53.480;-6.300;2023-07-16T11:14:45;100050.03;;;23.77;53.33
61537;BME280;48695;53.480;-6.300;2023-07-16T11:17:12;100048.97;;;23.59;53.39
61537;BME280;48695;53.480;-6.300;2023-07-16T11:19:38;100047.78;;;23.51;52.47
61537;BME280;48695;53.480;-6.300;2023-07-16T11:22:05;100050.59;;;23.50;54.88
61537;BME280;48695;53.480;-6.300;2023-07-16T11:27:03;100052.81;;;23.66;53.80
61537;BME280;48695;53.480;-6.300;2023-07-16T11:29:35;100006.69;;;23.75;54.72
61537;BME280;48695;53.480;-6.300;2023-07-16T11:32:01;100044.13;;;24.14;52.61
61537;BME280;48695;53.480;-6.300;2023-07-16T11:34:27;100033.94;;;24.38;50.69
61537;BME280;48695;53.480;-6.300;2023-07-16T11:36:53;100042.22;;;24.54;50.67
61537;BME280;48695;53.480;-6.300;2023-07-16T11:39:18;100027.88;;;24.55;49.76
61537;BME280;48695;53.480;-6.300;2023-07-16T11:41:55;100030.94;;;24.90;53.10
61537;BME280;48695;53.480;-6.300;2023-07-16T11:44:21;100038.81;;;24.91;49.32
61537;BME280;48695;53.480;-6.300;2023-07-16T11:46:47;100029.63;;;25.03;47.89
61537;BME280;48695;53.480;-6.300;2023-07-16T11:49:12;100032.28;;;25.23;48.39
61537;BME280;48695;53.480;-6.300;2023-07-16T11:51:38;100042.59;;;25.55;47.51
61537;BME280;48695;53.480;-6.300;2023-07-16T11:54:03;100037.22;;;25.92;45.62
61537;BME280;48695;53.480;-6.300;2023-07-16T11:56:28;99996.19;;;26.01;45.69
61537;BME280;48695;53.480;-6.300;2023-07-16T11:58:54;100037.38;;;26.54;46.75
61537;BME280;48695;53.480;-6.300;2023-07-16T12:01:19;100051.19;;;26.85;43.82
61537;BME280;48695;53.480;-6.300;2023-07-16T12:03:45;100041.38;;;27.11;42.91
61537;BME280;48695;53.480;-6.300;2023-07-16T12:06:10;100040.16;;;27.32;43.75
61537;BME280;48695;53.480;-6.300;2023-07-16T12:08:35;100046.13;;;27.52;43.45
61537;BME280;48695;53.480;-6.300;2023-07-16T12:11:01;100038.31;;;27.66;42.16
61537;BME280;48695;53.480;-6.300;2023-07-16T12:13:29;100045.34;;;27.93;42.50
61537;BME280;48695;53.480;-6.300;2023-07-16T12:15:55;100049.28;;;28.24;41.67
61537;BME280;48695;53.480;-6.300;2023-07-16T12:18:20;100038.94;;;28.45;43.27
61537;BME280;48695;53.480;-6.300;2023-07-16T12:20:45;100050.38;;;28.72;43.07
61537;BME280;48695;53.480;-6.300;2023-07-16T12:23:11;100050.03;;;28.91;41.01
61537;BME280;48695;53.480;-6.300;2023-07-16T12:25:36;100047.03;;;29.02;39.53
61537;BME280;48695;53.480;-6.300;2023-07-16T12:28:02;100051.03;;;29.14;37.77
61537;BME280;48695;53.480;-6.300;2023-07-16T12:30:27;100043.97;;;29.13;36.14
61537;BME280;48695;53.480;-6.300;2023-07-16T12:32:53;100044.97;;;29.20;36.82
61537;BME280;48695;53.480;-6.300;2023-07-16T12:35:18;100059.09;;;29.23;38.51
61537;BME280;48695;53.480;-6.300;2023-07-16T12:37:44;100064.13;;;29.26;36.73
61537;BME280;48695;53.480;-6.300;2023-07-16T12:40:09;100064.59;;;29.29;39.04
61537;BME280;48695;53.480;-6.300;2023-07-16T12:42:35;100064.41;;;29.39;36.51
61537;BME280;48695;53.480;-6.300;2023-07-16T12:45:01;100069.09;;;29.45;37.96
61537;BME280;48695;53.480;-6.300;2023-07-16T12:47:26;100062.41;;;29.41;35.70
61537;BME280;48695;53.480;-6.300;2023-07-16T12:49:52;100059.72;;;29.33;37.29
61537;BME280;48695;53.480;-6.300;2023-07-16T12:52:17;100064.13;;;29.26;37.72
61537;BME280;48695;53.480;-6.300;2023-07-16T12:54:42;100060.44;;;29.27;38.19